sensor_id;sensor_type;location;lat;lon;timestamp;temperature;humidity
9383;DHT22;4731;49.708;10.816;2023-12-28T00:01:52;2.60;99.90
9383;DHT22;4731;49.708;10.816;2023-12-28T00:04:19;2.60;99.90
9383;DHT22;4731;49.708;10.816;2023-12-28T00:06:46;4.10;99.90
9383;DHT22;4731;49.708;10.816;2023-12-28T00:09:14;2.50;99.90
9383;DHT22;4731;49.708;10.816;2023-12-28T00:11:40;2.40;99.90
9383;DHT22;4731;49.708;10.816;2023-12-28T00:14:07;2.40;99.90
9383;DHT22;4731;49.708;10.816;2023-12-28T00:16:34;2.60;99.90
9383;DHT22;4731;49.708;10.816;2023-12-28T00:19:02;0.80;99.90
9383;DHT22;4731;49.708;10.816;2023-12-28T00:21:29;4.50;99.90
9383;DHT22;4731;49.708;10.816;2023-12-28T00:23:56;2.80;99.90
9383;DHT22;4731;49.708;10.816;2023-12-28T00:31:18;2.70;99.90
9383;DHT22;4731;49.708;10.816;2023-12-28T00:33:45;4.80;99.90
9383;DHT22;4731;49.708;10.816;2023-12-28T00:36:12;2.50;99.90
9383;DHT22;4731;49.708;10.816;2023-12-28T00:38:39;2.50;99.90
9383;DHT22;4731;49.708;10.816;2023-12-28T00:41:05;2.40;99.90
9383;DHT22;4731;49.708;10.816;2023-12-28T00:43:34;2.30;99.90
9383;DHT22;4731;49.708;10.816;2023-12-28T00:46:02;2.30;99.90
9383;DHT22;4731;49.708;10.816;2023-12-28T00:48:29;2.30;99.90
9383;DHT22;4731;49.708;10.816;2023-12-28T00:53:24;2.50;99.90
9383;DHT22;4731;49.708;10.816;2023-12-28T00:55:51;2.50;99.90
9383;DHT22;4731;49.708;10.816;2023-12-28T00:58:18;2.60;99.90
9383;DHT22;4731;49.708;10.816;2023-12-28T01:00:46;2.60;99.90
9383;DHT22;4731;49.708;10.816;2023-12-28T01:03:13;4.90;99.90
9383;DHT22;4731;49.708;10.816;2023-12-28T01:05:40;2.50;99.90
9383;DHT22;4731;49.708;10.816;2023-12-28T01:08:06;2.50;99.90
9383;DHT22;4731;49.708;10.816;2023-12-28T01:10:33;2.40;99.90
9383;DHT22;4731;49.708;10.816;2023-12-28T01:13:00;2.50;99.90
9383;DHT22;4731;49.708;10.816;2023-12-28T01:15:27;2.40;99.90
9383;DHT22;4731;49.708;10.816;2023-12-28T01:20:22;2.40;99.90
9383;DHT22;4731;49.708;10.816;2023-12-28T01:22:49;2.40;99.90
9383;DHT22;4731;49.708;10.816;2023-12-28T01:25:16;2.30;99.90
9383;DHT22;4731;49.708;10.816;2023-12-28T01:27:43;2.30;99.90
9383;DHT22;4731;49.708;10.816;2023-12-28T01:30:09;2.30;99.90
9383;DHT22;4731;49.708;10.816;2023-12-28T01:32:37;2.40;99.90
9383;DHT22;4731;49.708;10.816;2023-12-28T01:35:06;2.40;99.90
9383;DHT22;4731;49.708;10.816;2023-12-28T01:37:33;2.30;99.90
9383;DHT22;4731;49.708;10.816;2023-12-28T01:40:02;2.30;99.90
9383;DHT22;4731;49.708;10.816;2023-12-28T01:42:29;2.30;99.90
9383;DHT22;4731;49.708;10.816;2023-12-28T01:44:57;2.20;99.90
9383;DHT22;4731;49.708;10.816;2023-12-28T01:47:24;2.20;99.90
9383;DHT22;4731;49.708;10.816;2023-12-28T01:49:51;2.20;99.90
9383;DHT22;4731;49.708;10.816;2023-12-28T01:52:20;2.20;99.90
9383;DHT22;4731;49.708;10.816;2023-12-28T01:54:47;2.20;99.90
9383;DHT22;4731;49.708;10.816;2023-12-28T01:57:15;2.10;99.90
9383;DHT22;4731;49.708;10.816;2023-12-28T01:59:43;2.00;99.90
9383;DHT22;4731;49.708;10.816;2023-12-28T02:02:10;2.00;99.90
9383;DHT22;4731;49.708;10.816;2023-12-28T02:07:05;1.80;99.90
9383;DHT22;4731;49.708;10.816;2023-12-28T02:09:34;3.80;99.90
9383;DHT22;4731;49.708;10.816;2023-12-28T02:12:01;1.80;99.90
9383;DHT22;4731;49.708;10.816;2023-12-28T02:14:28;1.80;99.90
9383;DHT22;4731;49.708;10.816;2023-12-28T02:17:00;1.70;99.90
9383;DHT22;4731;49.708;10.816;2023-12-28T02:19:33;1.50;99.90
9383;DHT22;4731;49.708;10.816;2023-12-28T02:22:06;1.50;99.90
9383;DHT22;4731;49.708;10.816;2023-12-28T02:27:34;1.40;99.90
9383;DHT22;4731;49.708;10.816;2023-12-28T02:30:02;1.30;99.90
9383;DHT22;4731;49.708;10.816;2023-12-28T02:32:39;2.10;99.90
9383;DHT22;4731;49.708;10.816;2023-12-28T02:35:12;1.40;99.90
9383;DHT22;4731;49.708;10.816;2023-12-28T02:37:42;1.40;99.90
9383;DHT22;4731;49.708;10.816;2023-12-28T02:40:11;1.40;99.90
9383;DHT22;4731;49.708;10.816;2023-12-28T02:42:39;1.40;99.90
9383;DHT22;4731;49.708;10.816;2023-12-28T02:45:06;1.40;99.90
9383;DHT22;4731;49.708;10.816;2023-12-28T02:50:00;1.30;99.90
9383;DHT22;4731;49.708;10.816;2023-12-28T02:52:27;1.30;99.90
9383;DHT22;4731;49.708;10.816;2023-12-28T02:54:54;1.30;99.90
9383;DHT22;4731;49.708;10.816;2023-12-28T02:57:20;1.30;99.90
9383;DHT22;4731;49.708;10.816;2023-12-28T03:02:16;1.40;99.90
9383;DHT22;4731;49.708;10.816;2023-12-28T03:04:42;1.40;99.90
9383;DHT22;4731;49.708;10.816;2023-12-28T03:07:09;1.40;99.90
9383;DHT22;4731;49.708;10.816;2023-12-28T03:09:36;1.40;99.90
9383;DHT22;4731;49.708;10.816;2023-12-28T03:12:04;1.40;99.90
9383;DHT22;4731;49.708;10.816;2023-12-28T03:19:27;1.30;99.90
9383;DHT22;4731;49.708;10.816;2023-12-28T03:21:54;1.20;99.90
9383;DHT22;4731;49.708;10.816;2023-12-28T03:24:21;1.10;99.90
9383;DHT22;4731;49.708;10.816;2023-12-28T03:26:48;1.10;99.90
9383;DHT22;4731;49.708;10.816;2023-12-28T03:31:42;1.10;99.90
9383;DHT22;4731;49.708;10.816;2023-12-28T03:34:10;1.10;99.90
9383;DHT22;4731;49.708;10.816;2023-12-28T03:36:37;1.20;99.90
9383;DHT22;4731;49.708;10.816;2023-12-28T03:43:59;1.10;99.90
9383;DHT22;4731;49.708;10.816;2023-12-28T03:46:26;1.20;99.90
9383;DHT22;4731;49.708;10.816;2023-12-28T03:48:52;1.10;99.90
9383;DHT22;4731;49.708;10.816;2023-12-28T03:51:20;1.20;99.90
9383;DHT22;4731;49.708;10.816;2023-12-28T03:56:21;1.30;99.90
9383;DHT22;4731;49.708;10.816;2023-12-28T03:58:48;1.50;99.90
9383;DHT22;4731;49.708;10.816;2023-12-28T04:01:16;1.50;99.90
9383;DHT22;4731;49.708;10.816;2023-12-28T04:06:10;1.70;99.90
9383;DHT22;4731;49.708;10.816;2023-12-28T04:08:39;5.30;99.90
9383;DHT22;4731;49.708;10.816;2023-12-28T04:16:00;2.10;99.90
9383;DHT22;4731;49.708;10.816;2023-12-28T04:20:55;2.20;99.90
9383;DHT22;4731;49.708;10.816;2023-12-28T04:23:22;5.00;99.90
9383;DHT22;4731;49.708;10.816;2023-12-28T04:30:44;2.30;99.90
9383;DHT22;4731;49.708;10.816;2023-12-28T04:33:11;2.30;99.90
9383;DHT22;4731;49.708;10.816;2023-12-28T04:35:38;5.10;99.90
9383;DHT22;4731;49.708;10.816;2023-12-28T04:40:32;2.50;99.90
9383;DHT22;4731;49.708;10.816;2023-12-28T04:43:00;2.40;99.90
9383;DHT22;4731;49.708;10.816;2023-12-28T04:45:28;2.50;99.90
9383;DHT22;4731;49.708;10.816;2023-12-28T04:47:55;2.60;99.90
9383;DHT22;4731;49.708;10.816;2023-12-28T04:50:21;2.60;99.90
9383;DHT22;4731;49.708;10.816;2023-12-28T04:52:48;2.60;99.90
9383;DHT22;4731;49.708;10.816;2023-12-28T04:55:15;2.70;99.90
9383;DHT22;4731;49.708;10.816;2023-12-28T04:57:42;2.80;99.90
9383;DHT22;4731;49.708;10.816;2023-12-28T05:00:11;2.80;99.90
9383;DHT22;4731;49.708;10.816;2023-12-28T05:05:05;2.90;99.90
9383;DHT22;4731;49.708;10.816;2023-12-28T05:07:34;3.00;99.90
9383;DHT22;4731;49.708;10.816;2023-12-28T05:12:27;3.10;99.90
9383;DHT22;4731;49.708;10.816;2023-12-28T05:14:54;3.10;99.90
9383;DHT22;4731;49.708;10.816;2023-12-28T05:22:16;3.20;99.90
9383;DHT22;4731;49.708;10.816;2023-12-28T05:24:43;3.20;99.90
9383;DHT22;4731;49.708;10.816;2023-12-28T05:32:05;3.30;99.90
9383;DHT22;4731;49.708;10.816;2023-12-28T05:34:33;3.30;99.90
9383;DHT22;4731;49.708;10.816;2023-12-28T05:37:00;4.90;99.90
9383;DHT22;4731;49.708;10.816;2023-12-28T05:46:48;3.60;99.90
9383;DHT22;4731;49.708;10.816;2023-12-28T05:49:15;3.60;99.90
9383;DHT22;4731;49.708;10.816;2023-12-28T05:51:43;3.70;99.90
9383;DHT22;4731;49.708;10.816;2023-12-28T05:54:10;4.60;99.90
9383;DHT22;4731;49.708;10.816;2023-12-28T05:56:37;3.70;99.90
9383;DHT22;4731;49.708;10.816;2023-12-28T05:59:03;3.80;99.90
9383;DHT22;4731;49.708;10.816;2023-12-28T06:01:30;3.70;99.90
9383;DHT22;4731;49.708;10.816;2023-12-28T06:03:57;3.80;99.90
9383;DHT22;4731;49.708;10.816;2023-12-28T06:06:24;3.90;99.90
9383;DHT22;4731;49.708;10.816;2023-12-28T06:11:20;3.90;99.90
9383;DHT22;4731;49.708;10.816;2023-12-28T06:16:14;4.00;99.90
9383;DHT22;4731;49.708;10.816;2023-12-28T06:26:07;3.70;99.90
9383;DHT22;4731;49.708;10.816;2023-12-28T06:31:01;3.50;99.90
9383;DHT22;4731;49.708;10.816;2023-12-28T06:33:30;3.60;99.90
9383;DHT22;4731;49.708;10.816;2023-12-28T06:35:56;3.60;99.90
9383;DHT22;4731;49.708;10.816;2023-12-28T06:38:24;3.60;99.90
9383;DHT22;4731;49.708;10.816;2023-12-28T06:40:51;6.20;99.90
9383;DHT22;4731;49.708;10.816;2023-12-28T06:43:19;6.60;99.90
9383;DHT22;4731;49.708;10.816;2023-12-28T06:45:46;3.80;99.90
9383;DHT22;4731;49.708;10.816;2023-12-28T06:50:40;3.70;99.90
9383;DHT22;4731;49.708;10.816;2023-12-28T06:53:07;3.70;99.90
9383;DHT22;4731;49.708;10.816;2023-12-28T06:55:34;3.60;99.90
9383;DHT22;4731;49.708;10.816;2023-12-28T07:02:57;3.80;99.90
9383;DHT22;4731;49.708;10.816;2023-12-28T07:05:23;3.80;99.90
9383;DHT22;4731;49.708;10.816;2023-12-28T07:07:53;4.80;99.90
9383;DHT22;4731;49.708;10.816;2023-12-28T07:10:20;3.90;99.90
9383;DHT22;4731;49.708;10.816;2023-12-28T07:12:46;4.10;99.90
9383;DHT22;4731;49.708;10.816;2023-12-28T07:15:13;4.10;99.90
9383;DHT22;4731;49.708;10.816;2023-12-28T07:17:41;4.40;99.90
9383;DHT22;4731;49.708;10.816;2023-12-28T07:20:09;6.80;99.90
9383;DHT22;4731;49.708;10.816;2023-12-28T07:22:37;5.20;99.90
9383;DHT22;4731;49.708;10.816;2023-12-28T07:25:05;8.30;99.90
9383;DHT22;4731;49.708;10.816;2023-12-28T07:27:32;6.30;99.90
9383;DHT22;4731;49.708;10.816;2023-12-28T07:32:28;7.10;99.90
9383;DHT22;4731;49.708;10.816;2023-12-28T07:34:56;7.30;99.90
9383;DHT22;4731;49.708;10.816;2023-12-28T07:37:24;7.50;99.90
9383;DHT22;4731;49.708;10.816;2023-12-28T07:42:18;7.60;99.90
9383;DHT22;4731;49.708;10.816;2023-12-28T07:47:12;7.80;99.90
9383;DHT22;4731;49.708;10.816;2023-12-28T07:49:40;7.80;99.90
9383;DHT22;4731;49.708;10.816;2023-12-28T07:52:08;7.90;99.90
9383;DHT22;4731;49.708;10.816;2023-12-28T07:57:02;7.90;99.90
9383;DHT22;4731;49.708;10.816;2023-12-28T07:59:29;7.90;99.90
9383;DHT22;4731;49.708;10.816;2023-12-28T08:04:23;7.90;99.90
9383;DHT22;4731;49.708;10.816;2023-12-28T08:11:46;7.90;99.90
9383;DHT22;4731;49.708;10.816;2023-12-28T08:14:12;7.80;99.90
9383;DHT22;4731;49.708;10.816;2023-12-28T08:16:39;8.60;99.90
9383;DHT22;4731;49.708;10.816;2023-12-28T08:19:06;8.70;99.90
9383;DHT22;4731;49.708;10.816;2023-12-28T08:24:02;7.70;99.90
9383;DHT22;4731;49.708;10.816;2023-12-28T08:26:30;7.80;99.90
9383;DHT22;4731;49.708;10.816;2023-12-28T08:28:58;7.80;99.90
9383;DHT22;4731;49.708;10.816;2023-12-28T08:33:52;7.90;99.90
9383;DHT22;4731;49.708;10.816;2023-12-28T08:38:46;8.00;99.90
9383;DHT22;4731;49.708;10.816;2023-12-28T08:41:19;8.20;99.90
9383;DHT22;4731;49.708;10.816;2023-12-28T08:46:16;8.40;99.90
9383;DHT22;4731;49.708;10.816;2023-12-28T08:51:10;8.40;99.90
9383;DHT22;4731;49.708;10.816;2023-12-28T08:56:13;8.60;99.90
9383;DHT22;4731;49.708;10.816;2023-12-28T08:58:40;8.60;99.90
9383;DHT22;4731;49.708;10.816;2023-12-28T09:01:09;9.30;99.90
9383;DHT22;4731;49.708;10.816;2023-12-28T09:03:41;8.60;99.90
9383;DHT22;4731;49.708;10.816;2023-12-28T09:06:08;8.70;99.90
9383;DHT22;4731;49.708;10.816;2023-12-28T09:08:35;9.80;99.90
9383;DHT22;4731;49.708;10.816;2023-12-28T09:15:56;8.60;99.90
9383;DHT22;4731;49.708;10.816;2023-12-28T09:18:24;8.60;99.90
9383;DHT22;4731;49.708;10.816;2023-12-28T09:23:18;8.60;99.90
9383;DHT22;4731;49.708;10.816;2023-12-28T09:25:45;8.70;99.90
9383;DHT22;4731;49.708;10.816;2023-12-28T09:28:12;8.70;99.90
9383;DHT22;4731;49.708;10.816;2023-12-28T09:30:40;11.60;99.90
9383;DHT22;4731;49.708;10.816;2023-12-28T09:33:07;8.70;99.90
9383;DHT22;4731;49.708;10.816;2023-12-28T09:35:35;8.80;99.90
9383;DHT22;4731;49.708;10.816;2023-12-28T09:38:02;9.10;99.90
9383;DHT22;4731;49.708;10.816;2023-12-28T09:40:29;8.70;99.90
9383;DHT22;4731;49.708;10.816;2023-12-28T09:43:01;8.80;99.90
9383;DHT22;4731;49.708;10.816;2023-12-28T09:45:31;10.60;99.90
9383;DHT22;4731;49.708;10.816;2023-12-28T09:47:57;9.70;99.90
9383;DHT22;4731;49.708;10.816;2023-12-28T09:50:24;8.40;99.90
9383;DHT22;4731;49.708;10.816;2023-12-28T09:53:07;10.20;99.90
9383;DHT22;4731;49.708;10.816;2023-12-28T09:55:34;8.90;99.90
9383;DHT22;4731;49.708;10.816;2023-12-28T09:58:02;9.00;99.90
9383;DHT22;4731;49.708;10.816;2023-12-28T10:00:32;9.00;99.90
9383;DHT22;4731;49.708;10.816;2023-12-28T10:05:28;9.00;99.90
9383;DHT22;4731;49.708;10.816;2023-12-28T10:07:56;9.00;99.90
9383;DHT22;4731;49.708;10.816;2023-12-28T10:10:25;9.00;99.90
9383;DHT22;4731;49.708;10.816;2023-12-28T10:17:46;9.00;99.90
9383;DHT22;4731;49.708;10.816;2023-12-28T10:20:14;9.10;99.90
9383;DHT22;4731;49.708;10.816;2023-12-28T10:25:09;9.10;99.90
9383;DHT22;4731;49.708;10.816;2023-12-28T10:27:40;9.20;99.90
9383;DHT22;4731;49.708;10.816;2023-12-28T10:30:08;9.10;99.90
9383;DHT22;4731;49.708;10.816;2023-12-28T10:32:35;9.10;99.90
9383;DHT22;4731;49.708;10.816;2023-12-28T10:35:02;9.20;99.90
9383;DHT22;4731;49.708;10.816;2023-12-28T10:37:32;9.30;99.90
9383;DHT22;4731;49.708;10.816;2023-12-28T10:39:59;10.50;99.90
9383;DHT22;4731;49.708;10.816;2023-12-28T10:42:29;9.30;99.90
9383;DHT22;4731;49.708;10.816;2023-12-28T10:45:03;9.40;99.90
9383;DHT22;4731;49.708;10.816;2023-12-28T10:47:37;9.30;99.90
9383;DHT22;4731;49.708;10.816;2023-12-28T10:50:05;9.30;99.90
9383;DHT22;4731;49.708;10.816;2023-12-28T10:52:33;9.30;99.90
9383;DHT22;4731;49.708;10.816;2023-12-28T10:55:14;9.30;99.90
9383;DHT22;4731;49.708;10.816;2023-12-28T10:57:49;9.40;99.90
9383;DHT22;4731;49.708;10.816;2023-12-28T11:00:25;9.30;99.90
9383;DHT22;4731;49.708;10.816;2023-12-28T11:02:53;9.40;99.90
9383;DHT22;4731;49.708;10.816;2023-12-28T11:05:23;9.30;99.90
9383;DHT22;4731;49.708;10.816;2023-12-28T11:07:50;9.30;99.90
9383;DHT22;4731;49.708;10.816;2023-12-28T11:10:20;9.30;99.90
9383;DHT22;4731;49.708;10.816;2023-12-28T11:12:48;11.10;99.90
9383;DHT22;4731;49.708;10.816;2023-12-28T11:15:17;9.40;99.90
9383;DHT22;4731;49.708;10.816;2023-12-28T11:17:46;9.90;99.90
9383;DHT22;4731;49.708;10.816;2023-12-28T11:20:14;12.30;99.90
9383;DHT22;4731;49.708;10.816;2023-12-28T11:22:41;9.30;99.90
9383;DHT22;4731;49.708;10.816;2023-12-28T11:25:15;9.40;99.90
9383;DHT22;4731;49.708;10.816;2023-12-28T11:27:41;9.40;99.90
9383;DHT22;4731;49.708;10.816;2023-12-28T11:30:10;9.50;99.90
9383;DHT22;4731;49.708;10.816;2023-12-28T11:32:38;9.50;99.90
9383;DHT22;4731;49.708;10.816;2023-12-28T11:35:08;9.50;99.90
9383;DHT22;4731;49.708;10.816;2023-12-28T11:37:36;9.50;99.90
9383;DHT22;4731;49.708;10.816;2023-12-28T11:40:10;9.60;99.90
9383;DHT22;4731;49.708;10.816;2023-12-28T11:42:47;9.50;99.90
9383;DHT22;4731;49.708;10.816;2023-12-28T11:45:16;9.60;99.90
9383;DHT22;4731;49.708;10.816;2023-12-28T11:47:43;9.50;99.90
9383;DHT22;4731;49.708;10.816;2023-12-28T11:50:12;9.50;99.90
9383;DHT22;4731;49.708;10.816;2023-12-28T11:52:39;9.50;99.90
9383;DHT22;4731;49.708;10.816;2023-12-28T11:55:06;9.50;99.90
9383;DHT22;4731;49.708;10.816;2023-12-28T11:57:33;9.40;99.90
9383;DHT22;4731;49.708;10.816;2023-12-28T12:00:01;9.50;99.90
9383;DHT22;4731;49.708;10.816;2023-12-28T12:02:30;9.40;99.90
9383;DHT22;4731;49.708;10.816;2023-12-28T12:04:56;9.40;99.90
9383;DHT22;4731;49.708;10.816;2023-12-28T12:07:25;9.40;99.90
9383;DHT22;4731;49.708;10.816;2023-12-28T12:09:55;9.40;99.90
9383;DHT22;4731;49.708;10.816;2023-12-28T12:12:25;9.40;99.90
9383;DHT22;4731;49.708;10.816;2023-12-28T12:14:51;9.40;99.90
9383;DHT22;4731;49.708;10.816;2023-12-28T12:17:20;9.40;99.90
9383;DHT22;4731;49.708;10.816;2023-12-28T12:22:20;11.40;99.90
9383;DHT22;4731;49.708;10.816;2023-12-28T12:24:49;12.40;99.90
9383;DHT22;4731;49.708;10.816;2023-12-28T12:27:17;9.20;99.90
9383;DHT22;4731;49.708;10.816;2023-12-28T12:29:45;9.50;99.90
9383;DHT22;4731;49.708;10.816;2023-12-28T12:32:12;9.50;99.90
9383;DHT22;4731;49.708;10.816;2023-12-28T12:34:40;9.50;99.90
9383;DHT22;4731;49.708;10.816;2023-12-28T12:37:07;10.50;99.90
9383;DHT22;4731;49.708;10.816;2023-12-28T12:39:34;11.40;99.90
9383;DHT22;4731;49.708;10.816;2023-12-28T12:42:03;9.60;99.90
9383;DHT22;4731;49.708;10.816;2023-12-28T12:44:30;9.60;99.90
9383;DHT22;4731;49.708;10.816;2023-12-28T12:46:59;9.50;99.90
9383;DHT22;4731;49.708;10.816;2023-12-28T12:49:27;9.60;99.90
9383;DHT22;4731;49.708;10.816;2023-12-28T12:51:54;9.50;99.90
9383;DHT22;4731;49.708;10.816;2023-12-28T12:54:21;9.60;99.90
9383;DHT22;4731;49.708;10.816;2023-12-28T12:56:49;11.90;99.90
9383;DHT22;4731;49.708;10.816;2023-12-28T12:59:18;9.70;99.90
9383;DHT22;4731;49.708;10.816;2023-12-28T13:01:47;9.60;99.90
9383;DHT22;4731;49.708;10.816;2023-12-28T13:04:15;9.50;99.90
9383;DHT22;4731;49.708;10.816;2023-12-28T13:06:43;9.50;99.90
9383;DHT22;4731;49.708;10.816;2023-12-28T13:09:10;9.40;99.90
9383;DHT22;4731;49.708;10.816;2023-12-28T13:11:37;9.40;99.90
9383;DHT22;4731;49.708;10.816;2023-12-28T13:14:04;11.60;99.90
9383;DHT22;4731;49.708;10.816;2023-12-28T13:16:33;9.40;99.90
9383;DHT22;4731;49.708;10.816;2023-12-28T13:19:00;9.50;99.90
9383;DHT22;4731;49.708;10.816;2023-12-28T13:21:27;9.50;99.90
9383;DHT22;4731;49.708;10.816;2023-12-28T13:23:54;9.50;99.90
9383;DHT22;4731;49.708;10.816;2023-12-28T13:26:26;9.40;99.90
9383;DHT22;4731;49.708;10.816;2023-12-28T13:31:22;9.40;99.90
9383;DHT22;4731;49.708;10.816;2023-12-28T13:33:52;10.90;99.90
9383;DHT22;4731;49.708;10.816;2023-12-28T13:36:19;7.20;99.90
9383;DHT22;4731;49.708;10.816;2023-12-28T13:38:46;9.30;99.90
9383;DHT22;4731;49.708;10.816;2023-12-28T13:41:13;9.50;99.90
9383;DHT22;4731;49.708;10.816;2023-12-28T13:43:40;9.40;99.90
9383;DHT22;4731;49.708;10.816;2023-12-28T13:48:34;9.50;99.90
9383;DHT22;4731;49.708;10.816;2023-12-28T13:51:05;9.50;99.90
9383;DHT22;4731;49.708;10.816;2023-12-28T13:53:32;9.50;99.90
9383;DHT22;4731;49.708;10.816;2023-12-28T13:56:01;12.50;99.90
9383;DHT22;4731;49.708;10.816;2023-12-28T13:58:28;9.70;99.90
9383;DHT22;4731;49.708;10.816;2023-12-28T14:00:55;10.60;99.90
9383;DHT22;4731;49.708;10.816;2023-12-28T14:03:22;10.10;99.90
9383;DHT22;4731;49.708;10.816;2023-12-28T14:05:48;9.70;99.90
9383;DHT22;4731;49.708;10.816;2023-12-28T14:08:18;9.40;99.90
9383;DHT22;4731;49.708;10.816;2023-12-28T14:13:12;9.40;99.90
9383;DHT22;4731;49.708;10.816;2023-12-28T14:15:38;11.20;99.90
9383;DHT22;4731;49.708;10.816;2023-12-28T14:18:11;9.30;99.90
9383;DHT22;4731;49.708;10.816;2023-12-28T14:20:38;9.20;99.90
9383;DHT22;4731;49.708;10.816;2023-12-28T14:23:05;9.30;99.90
9383;DHT22;4731;49.708;10.816;2023-12-28T14:25:34;9.40;99.90
9383;DHT22;4731;49.708;10.816;2023-12-28T14:28:03;9.40;99.90
9383;DHT22;4731;49.708;10.816;2023-12-28T14:30:31;9.40;99.90
9383;DHT22;4731;49.708;10.816;2023-12-28T14:32:58;9.30;99.90
9383;DHT22;4731;49.708;10.816;2023-12-28T14:35:25;9.30;99.90
9383;DHT22;4731;49.708;10.816;2023-12-28T14:37:53;9.40;99.90
9383;DHT22;4731;49.708;10.816;2023-12-28T14:40:20;9.30;99.90
9383;DHT22;4731;49.708;10.816;2023-12-28T14:42:54;9.40;99.90
9383;DHT22;4731;49.708;10.816;2023-12-28T14:45:23;10.00;99.90
9383;DHT22;4731;49.708;10.816;2023-12-28T14:47:50;11.20;99.90
9383;DHT22;4731;49.708;10.816;2023-12-28T14:50:17;11.80;99.90
9383;DHT22;4731;49.708;10.816;2023-12-28T14:52:44;9.40;99.90
9383;DHT22;4731;49.708;10.816;2023-12-28T14:55:12;9.90;99.90
9383;DHT22;4731;49.708;10.816;2023-12-28T14:57:38;9.30;99.90
9383;DHT22;4731;49.708;10.816;2023-12-28T15:00:08;9.30;99.90
9383;DHT22;4731;49.708;10.816;2023-12-28T15:02:37;9.20;99.90
9383;DHT22;4731;49.708;10.816;2023-12-28T15:05:04;9.30;99.90
9383;DHT22;4731;49.708;10.816;2023-12-28T15:07:31;9.20;99.90
9383;DHT22;4731;49.708;10.816;2023-12-28T15:09:58;9.20;99.90
9383;DHT22;4731;49.708;10.816;2023-12-28T15:12:25;9.20;99.90
9383;DHT22;4731;49.708;10.816;2023-12-28T15:14:53;9.30;99.90
9383;DHT22;4731;49.708;10.816;2023-12-28T15:17:22;9.30;99.90
9383;DHT22;4731;49.708;10.816;2023-12-28T15:19:49;9.20;99.90
9383;DHT22;4731;49.708;10.816;2023-12-28T15:22:17;9.20;99.90
9383;DHT22;4731;49.708;10.816;2023-12-28T15:24:46;9.10;99.90
9383;DHT22;4731;49.708;10.816;2023-12-28T15:34:36;9.00;99.90
9383;DHT22;4731;49.708;10.816;2023-12-28T15:39:30;9.00;99.90
9383;DHT22;4731;49.708;10.816;2023-12-28T15:41:57;9.00;99.90
9383;DHT22;4731;49.708;10.816;2023-12-28T15:44:24;9.10;99.90
9383;DHT22;4731;49.708;10.816;2023-12-28T15:46:51;9.70;99.90
9383;DHT22;4731;49.708;10.816;2023-12-28T15:49:17;9.20;99.90
9383;DHT22;4731;49.708;10.816;2023-12-28T15:51:46;9.20;99.90
9383;DHT22;4731;49.708;10.816;2023-12-28T15:54:13;9.20;99.90
9383;DHT22;4731;49.708;10.816;2023-12-28T16:01:34;9.20;99.90
9383;DHT22;4731;49.708;10.816;2023-12-28T16:04:01;9.20;99.90
9383;DHT22;4731;49.708;10.816;2023-12-28T16:06:27;9.20;99.90
9383;DHT22;4731;49.708;10.816;2023-12-28T16:08:56;9.30;99.90
9383;DHT22;4731;49.708;10.816;2023-12-28T16:11:22;9.30;99.90
9383;DHT22;4731;49.708;10.816;2023-12-28T16:13:49;9.30;99.90
9383;DHT22;4731;49.708;10.816;2023-12-28T16:16:17;9.30;99.90
9383;DHT22;4731;49.708;10.816;2023-12-28T16:18:44;9.30;99.90
9383;DHT22;4731;49.708;10.816;2023-12-28T16:21:12;9.30;99.90
9383;DHT22;4731;49.708;10.816;2023-12-28T16:23:42;9.40;99.90
9383;DHT22;4731;49.708;10.816;2023-12-28T16:28:39;9.30;99.90
9383;DHT22;4731;49.708;10.816;2023-12-28T16:31:06;9.30;99.90
9383;DHT22;4731;49.708;10.816;2023-12-28T16:33:33;9.30;99.90
9383;DHT22;4731;49.708;10.816;2023-12-28T16:36:01;9.30;99.90
9383;DHT22;4731;49.708;10.816;2023-12-28T16:38:28;9.30;99.90
9383;DHT22;4731;49.708;10.816;2023-12-28T16:40:55;11.70;99.90
9383;DHT22;4731;49.708;10.816;2023-12-28T16:43:23;9.20;99.90
9383;DHT22;4731;49.708;10.816;2023-12-28T16:45:56;9.30;99.90
9383;DHT22;4731;49.708;10.816;2023-12-28T16:48:24;9.20;99.90
9383;DHT22;4731;49.708;10.816;2023-12-28T16:50:52;9.10;99.90
9383;DHT22;4731;49.708;10.816;2023-12-28T16:53:20;9.10;99.90
9383;DHT22;4731;49.708;10.816;2023-12-28T16:55:47;10.50;99.90
9383;DHT22;4731;49.708;10.816;2023-12-28T17:00:42;9.30;99.90
9383;DHT22;4731;49.708;10.816;2023-12-28T17:03:09;9.30;99.90
9383;DHT22;4731;49.708;10.816;2023-12-28T17:05:36;9.20;99.90
9383;DHT22;4731;49.708;10.816;2023-12-28T17:08:04;9.30;99.90
9383;DHT22;4731;49.708;10.816;2023-12-28T17:10:32;9.20;99.90
9383;DHT22;4731;49.708;10.816;2023-12-28T17:13:00;9.20;99.90
9383;DHT22;4731;49.708;10.816;2023-12-28T17:15:27;9.10;99.90
9383;DHT22;4731;49.708;10.816;2023-12-28T17:17:57;9.10;99.90
9383;DHT22;4731;49.708;10.816;2023-12-28T17:20:24;9.20;99.90
9383;DHT22;4731;49.708;10.816;2023-12-28T17:22:51;9.20;99.90
9383;DHT22;4731;49.708;10.816;2023-12-28T17:25:31;9.10;99.90
9383;DHT22;4731;49.708;10.816;2023-12-28T17:28:04;9.10;99.90
9383;DHT22;4731;49.708;10.816;2023-12-28T17:30:31;9.10;99.90
9383;DHT22;4731;49.708;10.816;2023-12-28T17:33:10;9.20;99.90
9383;DHT22;4731;49.708;10.816;2023-12-28T17:35:38;9.20;99.90
9383;DHT22;4731;49.708;10.816;2023-12-28T17:38:05;9.10;99.90
9383;DHT22;4731;49.708;10.816;2023-12-28T17:40:33;9.10;99.90
9383;DHT22;4731;49.708;10.816;2023-12-28T17:43:05;9.10;99.90
9383;DHT22;4731;49.708;10.816;2023-12-28T17:45:44;9.10;99.90
9383;DHT22;4731;49.708;10.816;2023-12-28T17:48:20;9.10;99.90
9383;DHT22;4731;49.708;10.816;2023-12-28T17:50:50;9.10;99.90
9383;DHT22;4731;49.708;10.816;2023-12-28T17:53:18;9.10;99.90
9383;DHT22;4731;49.708;10.816;2023-12-28T17:55:44;9.20;99.90
9383;DHT22;4731;49.708;10.816;2023-12-28T17:58:11;9.20;99.90
9383;DHT22;4731;49.708;10.816;2023-12-28T18:00:39;9.20;99.90
9383;DHT22;4731;49.708;10.816;2023-12-28T18:03:06;9.20;99.90
9383;DHT22;4731;49.708;10.816;2023-12-28T18:05:34;9.20;99.90
9383;DHT22;4731;49.708;10.816;2023-12-28T18:08:01;9.20;99.90
9383;DHT22;4731;49.708;10.816;2023-12-28T18:12:55;9.20;99.90
9383;DHT22;4731;49.708;10.816;2023-12-28T18:15:22;9.20;99.90
9383;DHT22;4731;49.708;10.816;2023-12-28T18:17:48;9.20;99.90
9383;DHT22;4731;49.708;10.816;2023-12-28T18:20:15;9.10;99.90
9383;DHT22;4731;49.708;10.816;2023-12-28T18:27:38;9.20;99.90
9383;DHT22;4731;49.708;10.816;2023-12-28T18:30:06;9.20;99.90
9383;DHT22;4731;49.708;10.816;2023-12-28T18:32:33;9.10;99.90
9383;DHT22;4731;49.708;10.816;2023-12-28T18:37:27;9.20;99.90
9383;DHT22;4731;49.708;10.816;2023-12-28T18:39:55;9.20;99.90
9383;DHT22;4731;49.708;10.816;2023-12-28T18:42:22;9.20;99.90
9383;DHT22;4731;49.708;10.816;2023-12-28T18:44:49;9.10;99.90
9383;DHT22;4731;49.708;10.816;2023-12-28T18:47:16;9.10;99.90
9383;DHT22;4731;49.708;10.816;2023-12-28T18:49:45;9.50;99.90
9383;DHT22;4731;49.708;10.816;2023-12-28T18:54:40;9.00;99.90
9383;DHT22;4731;49.708;10.816;2023-12-28T18:57:08;9.10;99.90
9383;DHT22;4731;49.708;10.816;2023-12-28T18:59:35;9.10;99.90
9383;DHT22;4731;49.708;10.816;2023-12-28T19:02:02;10.60;99.90
9383;DHT22;4731;49.708;10.816;2023-12-28T19:06:56;9.10;99.90
9383;DHT22;4731;49.708;10.816;2023-12-28T19:09:23;9.20;99.90
9383;DHT22;4731;49.708;10.816;2023-12-28T19:11:51;9.10;99.90
9383;DHT22;4731;49.708;10.816;2023-12-28T19:14:19;9.20;99.90